Time;durP1;ratioP1;P1;durP2;ratioP2;P2;SDS_P1;SDS_P2;PMS_P1;PMS_P2;Temp;Humidity;BMP_temperature;BMP_pressure;BME280_temperature;BME280_humidity;BME280_pressure;Samples;Min_cycle;Max_cycle;Signal;HPM_P1;HPM_P2
2023/03/17 00:00:35;;;;;;;1.63;0.60;;;19.60;52.50;;;;;;5070707;28;20070;-80
2023/03/17 00:03:02;;;;;;;2.42;0.80;;;19.60;52.50;;;;;;5072304;28;20049;-80
2023/03/17 00:05:32;;;;;;;2.00;0.68;;;19.50;52.40;;;;;;5070551;28;20123;-80
2023/03/17 00:08:06;;;;;;;1.15;0.60;;;19.50;52.40;;;;;;5054511;28;20040;-80
2023/03/17 00:10:31;;;;;;;2.50;0.65;;;19.50;52.40;;;;;;5054823;28;20044;-80
2023/03/17 00:12:57;;;;;;;2.08;0.70;;;19.50;52.40;;;;;;5070525;28;20388;-79
2023/03/17 00:15:24;;;;;;;1.45;0.68;;;19.50;52.40;;;;;;5072165;28;20512;-80
2023/03/17 00:17:49;;;;;;;1.67;0.70;;;19.50;52.40;;;;;;5054031;28;20053;-80
2023/03/17 00:20:26;;;;;;;3.22;0.70;;;19.50;52.30;;;;;;5070371;28;20058;-79
2023/03/17 00:22:56;;;;;;;3.22;0.60;;;19.50;52.30;;;;;;5072233;28;20033;-79
2023/03/17 00:25:24;;;;;;;2.40;0.73;;;19.50;52.30;;;;;;5072506;28;20058;-79
2023/03/17 00:27:50;;;;;;;;;;;19.50;52.40;;;;;;5071613;28;20076;-79
2023/03/17 00:30:16;;;;;;;2.33;0.50;;;19.50;52.30;;;;;;5072405;28;19956;-80
2023/03/17 00:32:44;;;;;;;2.40;0.85;;;19.50;52.40;;;;;;5069942;28;20052;-79
2023/03/17 00:35:20;;;;;;;1.58;0.70;;;19.40;52.30;;;;;;5072232;28;20469;-80
2023/03/17 00:37:46;;;;;;;2.08;0.63;;;19.40;52.30;;;;;;5072128;28;20086;-80
2023/03/17 00:40:23;;;;;;;2.20;0.52;;;19.40;52.30;;;;;;5071464;28;20049;-80
2023/03/17 00:42:50;;;;;;;0.88;0.50;;;19.40;52.20;;;;;;5072271;28;20051;-78
2023/03/17 00:45:15;;;;;;;1.63;0.88;;;19.40;52.30;;;;;;5071953;28;20047;-78
2023/03/17 00:47:42;;;;;;;1.92;0.70;;;19.40;52.20;;;;;;5070750;28;20123;-78
2023/03/17 00:50:13;;;;;;;1.52;0.70;;;19.40;52.20;;;;;;5050586;28;20489;-78
2023/03/17 00:52:39;;;;;;;2.00;0.70;;;19.40;52.30;;;;;;5050742;28;20075;-78
2023/03/17 00:55:06;;;;;;;1.90;0.60;;;19.40;52.30;;;;;;5068198;28;20115;-78
2023/03/17 00:57:33;;;;;;;3.10;0.90;;;19.30;52.20;;;;;;5072138;28;20049;-78
2023/03/17 00:59:58;;;;;;;2.25;0.73;;;19.40;52.30;;;;;;5070416;28;20040;-78
2023/03/17 01:02:24;;;;;;;2.45;0.88;;;19.40;52.20;;;;;;5070705;28;20048;-78
2023/03/17 01:04:50;;;;;;;1.83;0.63;;;19.40;52.90;;;;;;5070442;28;20036;-79
2023/03/17 01:07:15;;;;;;;1.70;0.88;;;19.30;52.20;;;;;;5071710;28;20053;-80
2023/03/17 01:09:41;;;;;;;1.95;0.77;;;19.30;52.20;;;;;;5070925;28;20044;-79
2023/03/17 01:12:09;;;;;;;1.35;0.60;;;19.30;52.20;;;;;;5070773;28;20072;-78
2023/03/17 01:14:35;;;;;;;1.05;0.60;;;19.30;52.10;;;;;;5050397;28;20083;-78
2023/03/17 01:17:01;;;;;;;2.17;0.90;;;19.30;52.20;;;;;;5054577;28;20084;-78
2023/03/17 01:19:26;;;;;;;1.85;0.70;;;19.30;52.20;;;;;;5064068;28;20044;-79
2023/03/17 01:21:52;;;;;;;2.28;0.60;;;19.30;52.20;;;;;;5095011;28;20407;-78
2023/03/17 01:24:18;;;;;;;2.00;0.60;;;19.20;52.10;;;;;;5095705;28;20125;-78
2023/03/17 01:26:44;;;;;;;1.15;0.52;;;19.30;52.20;;;;;;5095221;28;20495;-78
2023/03/17 01:29:10;;;;;;;1.65;0.70;;;19.30;52.20;;;;;;5094863;28;20228;-78
2023/03/17 01:31:36;;;;;;;1.35;0.60;;;19.20;52.10;;;;;;5076789;28;20040;-78
2023/03/17 01:34:03;;;;;;;2.05;0.82;;;19.20;52.80;;;;;;5089247;28;20491;-79
2023/03/17 01:36:28;;;;;;;2.38;0.50;;;19.20;52.10;;;;;;5094480;28;20040;-79
2023/03/17 01:38:54;;;;;;;1.33;0.68;;;19.20;52.10;;;;;;5095443;28;20051;-78
2023/03/17 01:41:19;;;;;;;0.95;0.55;;;19.20;52.10;;;;;;5095235;28;20051;-79
2023/03/17 01:43:45;;;;;;;1.73;0.60;;;19.20;52.10;;;;;;5094089;28;20042;-79
2023/03/17 01:46:28;;;;;;;1.42;0.60;;;19.20;52.10;;;;;;5095352;28;20036;-79
2023/03/17 01:49:29;;;;;;;1.85;0.77;;;19.20;52.00;;;;;;5095012;28;20114;-78
2023/03/17 01:52:06;;;;;;;2.60;0.60;;;19.20;52.00;;;;;;5076316;28;20084;-78
2023/03/17 01:54:36;;;;;;;2.13;0.70;;;19.20;52.10;;;;;;5077334;28;20036;-78
2023/03/17 01:57:30;;;;;;;1.92;0.80;;;19.20;52.20;;;;;;5075820;28;20059;-78
2023/03/17 01:59:59;;;;;;;1.98;0.70;;;19.20;52.00;;;;;;5060225;28;20480;-78
2023/03/17 02:02:31;;;;;;;1.08;0.63;;;19.10;52.00;;;;;;5060121;28;20073;-78
2023/03/17 02:04:57;;;;;;;1.48;0.70;;;19.10;52.00;;;;;;5076741;28;20040;-78
2023/03/17 02:07:23;;;;;;;1.33;0.77;;;19.10;52.00;;;;;;5076518;28;20088;-80
2023/03/17 02:09:48;;;;;;;1.77;0.50;;;19.10;52.00;;;;;;5076620;28;20044;-80
2023/03/17 02:12:14;;;;;;;1.55;0.63;;;19.10;52.10;;;;;;5038947;28;20197;-79
2023/03/17 02:14:40;;;;;;;1.17;0.60;;;19.10;52.10;;;;;;5065189;28;20035;-78
2023/03/17 02:17:06;;;;;;;1.38;0.80;;;19.10;52.00;;;;;;5094016;28;20059;-79
2023/03/17 02:19:32;;;;;;;1.77;0.90;;;19.10;52.80;;;;;;5093043;28;20043;-79
2023/03/17 02:21:58;;;;;;;1.25;0.55;;;19.10;52.10;;;;;;5094110;28;20131;-79
2023/03/17 02:24:29;;;;;;;1.48;0.80;;;19.10;52.00;;;;;;5076092;28;20119;-78
2023/03/17 02:26:56;;;;;;;1.40;0.65;;;19.10;52.00;;;;;;5075060;28;20048;-77
2023/03/17 02:29:22;;;;;;;1.33;0.70;;;19.10;52.00;;;;;;5076318;28;20051;-78
2023/03/17 02:31:47;;;;;;;1.45;0.60;;;19.10;52.00;;;;;;5074816;28;20035;-79
2023/03/17 02:34:14;;;;;;;1.52;0.52;;;19.10;52.00;;;;;;5093328;28;20044;-79
2023/03/17 02:36:40;;;;;;;1.13;0.50;;;19.10;52.00;;;;;;5093858;28;20554;-79
2023/03/17 02:39:06;;;;;;;1.48;0.57;;;19.10;52.00;;;;;;5093820;28;20580;-79
2023/03/17 02:41:31;;;;;;;1.45;0.40;;;19.10;52.00;;;;;;5094166;28;20072;-80
2023/03/17 02:43:57;;;;;;;1.13;0.70;;;19.10;52.00;;;;;;5094089;28;20445;-80
2023/03/17 02:46:22;;;;;;;0.73;0.50;;;19.10;52.00;;;;;;5077938;28;20748;-81
2023/03/17 02:48:48;;;;;;;2.03;0.70;;;19.20;52.00;;;;;;5095273;28;20422;-80
2023/03/17 02:51:14;;;;;;;0.90;0.50;;;19.10;52.00;;;;;;5073352;28;20041;-80
2023/03/17 02:53:39;;;;;;;1.15;0.50;;;19.20;52.00;;;;;;5073251;28;20044;-79
2023/03/17 02:56:05;;;;;;;1.67;0.65;;;19.20;52.00;;;;;;5074462;28;20072;-79
2023/03/17 02:58:31;;;;;;;1.30;0.65;;;19.20;52.00;;;;;;5093777;28;20048;-80
2023/03/17 03:00:57;;;;;;;1.38;0.80;;;19.20;52.00;;;;;;5074720;28;20040;-79
2023/03/17 03:03:22;;;;;;;1.35;0.60;;;19.10;52.00;;;;;;5075609;28;20051;-79
2023/03/17 03:05:48;;;;;;;1.02;0.68;;;19.20;52.00;;;;;;5093213;28;20040;-79
2023/03/17 03:08:13;;;;;;;2.20;0.60;;;19.20;52.00;;;;;;5093462;28;20501;-79
2023/03/17 03:10:40;;;;;;;1.10;0.57;;;19.20;52.00;;;;;;5093245;28;20040;-80
2023/03/17 03:13:06;;;;;;;2.50;0.82;;;19.20;52.00;;;;;;5075504;28;20075;-80
2023/03/17 03:15:31;;;;;;;0.80;0.52;;;19.20;52.00;;;;;;5074474;28;20080;-80
2023/03/17 03:17:57;;;;;;;1.40;0.60;;;19.20;52.00;;;;;;5093264;28;20052;-80
2023/03/17 03:20:23;;;;;;;0.80;0.50;;;19.20;52.00;;;;;;5093451;28;20229;-80
2023/03/17 03:22:48;;;;;;;0.93;0.57;;;19.20;52.00;;;;;;5093597;28;20122;-80
2023/03/17 03:25:14;;;;;;;0.77;0.45;;;19.30;52.00;;;;;;5093962;28;20039;-79
2023/03/17 03:27:40;;;;;;;1.88;0.70;;;19.20;52.00;;;;;;5093234;28;20097;-77
2023/03/17 03:30:07;;;;;;;1.92;0.88;;;19.20;51.90;;;;;;5092533;28;20044;-79
2023/03/17 03:32:33;;;;;;;1.38;0.60;;;19.30;52.00;;;;;;5092951;28;20082;-79
2023/03/17 03:34:58;;;;;;;2.47;0.47;;;19.30;52.00;;;;;;5075250;28;20048;-79
2023/03/17 03:37:24;;;;;;;1.25;0.60;;;19.30;52.00;;;;;;5092440;28;20473;-79
2023/03/17 03:39:50;;;;;;;1.67;0.70;;;19.30;52.00;;;;;;5074921;28;20040;-79
2023/03/17 03:42:15;;;;;;;1.85;0.60;;;19.30;52.00;;;;;;5093677;28;20036;-81
2023/03/17 03:44:41;;;;;;;0.70;0.40;;;19.30;51.90;;;;;;5092310;28;20066;-80
2023/03/17 03:47:07;;;;;;;1.17;0.50;;;19.30;51.90;;;;;;5093371;28;20044;-81
2023/03/17 03:49:32;;;;;;;1.30;0.50;;;19.30;51.90;;;;;;5073609;28;20142;-81
2023/03/17 03:51:58;;;;;;;1.15;0.50;;;19.40;52.00;;;;;;5080184;28;20032;-80
2023/03/17 03:54:23;;;;;;;1.25;0.70;;;19.40;52.00;;;;;;5093221;28;20403;-79
2023/03/17 03:56:49;;;;;;;1.20;0.60;;;19.40;51.90;;;;;;5074240;28;20123;-80
2023/03/17 03:59:15;;;;;;;0.70;0.50;;;19.40;52.60;;;;;;5092858;28;20052;-80
2023/03/17 04:01:40;;;;;;;1.00;0.50;;;19.40;51.90;;;;;;5073991;28;20050;-79
2023/03/17 04:04:06;;;;;;;1.40;0.70;;;19.40;51.90;;;;;;5073614;28;20051;-79
2023/03/17 04:06:32;;;;;;;1.27;0.60;;;19.50;52.00;;;;;;5092528;28;20148;-80
2023/03/17 04:08:57;;;;;;;0.90;0.40;;;19.50;52.00;;;;;;5074322;28;20051;-79
2023/03/17 04:11:23;;;;;;;1.10;0.50;;;19.50;51.90;;;;;;5073475;28;20071;-80
2023/03/17 04:13:48;;;;;;;0.93;0.60;;;19.50;51.90;;;;;;5074523;28;20127;-79
2023/03/17 04:16:15;;;;;;;1.40;0.57;;;19.50;51.90;;;;;;5092248;28;20040;-79
2023/03/17 04:18:40;;;;;;;1.17;0.50;;;19.50;51.90;;;;;;5073365;28;20123;-79
2023/03/17 04:21:07;;;;;;;0.80;0.50;;;19.60;51.90;;;;;;5092643;28;20502;-78
2023/03/17 04:23:33;;;;;;;1.30;0.60;;;19.60;51.90;;;;;;5092361;28;20070;-78
2023/03/17 04:25:58;;;;;;;0.80;0.50;;;19.60;51.90;;;;;;5073426;28;20051;-79
2023/03/17 04:28:24;;;;;;;0.90;0.45;;;19.60;51.90;;;;;;5092255;28;20043;-78
2023/03/17 04:30:49;;;;;;;1.05;0.68;;;19.70;51.90;;;;;;5092439;28;20048;-79
2023/03/17 04:33:15;;;;;;;1.33;0.60;;;19.70;51.90;;;;;;5091696;28;20072;-78
2023/03/17 04:35:41;;;;;;;1.52;0.60;;;19.60;51.90;;;;;;5073887;28;20039;-79
2023/03/17 04:38:07;;;;;;;1.17;0.55;;;19.70;51.90;;;;;;5092457;28;20041;-79
2023/03/17 04:40:33;;;;;;;0.80;0.43;;;19.70;51.90;;;;;;5073475;28;20508;-79
2023/03/17 04:42:58;;;;;;;1.33;0.57;;;19.70;51.90;;;;;;5074089;28;20079;-79
2023/03/17 04:45:24;;;;;;;1.23;0.65;;;19.70;51.90;;;;;;5073586;28;20042;-79
2023/03/17 04:47:50;;;;;;;1.10;0.50;;;19.70;51.90;;;;;;5091506;28;20087;-80
2023/03/17 04:50:16;;;;;;;0.98;0.60;;;19.70;51.90;;;;;;5092191;28;20037;-80
2023/03/17 04:52:42;;;;;;;0.93;0.63;;;19.70;51.80;;;;;;5073352;28;20058;-79
2023/03/17 04:55:08;;;;;;;1.23;0.60;;;19.70;51.80;;;;;;5093524;28;20036;-79
2023/03/17 04:57:34;;;;;;;1.08;0.50;;;19.70;51.90;;;;;;5096149;28;20048;-80
2023/03/17 05:00:00;;;;;;;0.63;0.50;;;19.70;51.80;;;;;;5077279;28;20080;-78
2023/03/17 05:02:26;;;;;;;1.17;0.40;;;19.80;51.90;;;;;;5081059;28;20080;-78
2023/03/17 05:04:51;;;;;;;0.80;0.40;;;19.80;51.90;;;;;;5076951;28;20444;-79
2023/03/17 05:07:17;;;;;;;0.85;0.50;;;19.80;51.90;;;;;;5076508;28;20040;-79
2023/03/17 05:09:42;;;;;;;1.23;0.60;;;19.80;51.90;;;;;;5095570;28;20101;-79
2023/03/17 05:12:08;;;;;;;1.00;0.50;;;19.80;51.90;;;;;;5077573;28;20032;-80
2023/03/17 05:14:35;;;;;;;1.20;0.50;;;19.80;51.80;;;;;;5076826;28;20043;-79
2023/03/17 05:17:00;;;;;;;0.70;0.40;;;19.80;51.80;;;;;;5095513;28;20055;-78
2023/03/17 05:19:26;;;;;;;1.08;0.60;;;19.90;51.90;;;;;;5077159;28;20043;-79
2023/03/17 05:21:51;;;;;;;1.33;0.57;;;19.80;51.80;;;;;;5076820;28;20132;-78
2023/03/17 05:24:17;;;;;;;1.30;0.60;;;19.80;51.80;;;;;;5095898;28;20044;-78
2023/03/17 05:26:43;;;;;;;1.08;0.40;;;19.80;51.80;;;;;;5095274;28;20110;-77
2023/03/17 05:29:09;;;;;;;0.75;0.50;;;19.80;51.80;;;;;;5076883;28;20044;-78
2023/03/17 05:31:35;;;;;;;0.93;0.40;;;19.80;51.80;;;;;;5076833;28;20123;-78
2023/03/17 05:34:01;;;;;;;1.05;0.50;;;19.80;51.70;;;;;;5077189;28;20120;-79
2023/03/17 05:36:26;;;;;;;1.17;0.50;;;19.80;51.80;;;;;;5076129;28;20040;-79
2023/03/17 05:38:52;;;;;;;0.85;0.40;;;19.80;51.80;;;;;;5095774;28;20101;-78
2023/03/17 05:41:18;;;;;;;0.88;0.43;;;19.90;51.80;;;;;;5095140;28;20099;-78
2023/03/17 05:43:43;;;;;;;1.13;0.47;;;19.80;51.80;;;;;;5094104;28;20048;-79
2023/03/17 05:46:09;;;;;;;1.25;0.50;;;19.90;51.80;;;;;;5077078;28;20070;-79
2023/03/17 05:48:35;;;;;;;0.68;0.57;;;19.90;51.80;;;;;;5095164;28;20050;-79
2023/03/17 05:51:01;;;;;;;1.42;0.60;;;19.90;51.80;;;;;;5094222;28;20107;-78
2023/03/17 05:53:27;;;;;;;1.75;0.70;;;19.80;51.70;;;;;;5076444;28;20430;-79
2023/03/17 05:55:53;;;;;;;0.98;0.45;;;19.80;51.80;;;;;;5094937;28;20498;-78
2023/03/17 05:58:19;;;;;;;1.05;0.50;;;19.80;51.70;;;;;;5094510;28;20040;-79
2023/03/17 06:00:45;;;;;;;1.35;0.65;;;19.80;51.70;;;;;;5094402;28;20491;-82
2023/03/17 06:03:10;;;;;;;1.52;0.60;;;19.80;51.70;;;;;;5094160;28;20051;-81
2023/03/17 06:05:36;;;;;;;2.22;0.50;;;19.80;51.70;;;;;;5094419;28;20064;-76
2023/03/17 06:08:03;;;;;;;4.22;0.70;;;19.90;51.80;;;;;;5094696;28;20044;-74
2023/03/17 06:10:29;;;;;;;5.30;0.73;;;19.90;51.80;;;;;;5075739;28;20060;-71
2023/03/17 06:12:55;;;;;;;3.25;0.68;;;19.90;51.90;;;;;;5094874;28;20047;-77
2023/03/17 06:15:21;;;;;;;8.43;1.00;;;19.90;52.00;;;;;;5094710;28;20048;-76
2023/03/17 06:17:47;;;;;;;5.43;0.70;;;19.90;52.00;;;;;;5074897;28;20048;-74
2023/03/17 06:20:13;;;;;;;6.93;0.93;;;19.90;52.00;;;;;;5093843;28;20450;-75
2023/03/17 06:22:38;;;;;;;4.55;0.75;;;19.90;52.00;;;;;;5094019;28;20048;-75
2023/03/17 06:25:05;;;;;;;3.03;0.70;;;19.90;52.10;;;;;;5093492;28;20040;-77
2023/03/17 06:27:31;;;;;;;3.10;1.00;;;19.90;52.10;;;;;;5075495;28;20040;-76
2023/03/17 06:29:57;;;;;;;3.28;0.70;;;19.90;52.10;;;;;;5094510;28;20040;-75
2023/03/17 06:32:23;;;;;;;5.70;0.90;;;19.90;52.10;;;;;;5093060;28;20040;-76
2023/03/17 06:34:48;;;;;;;6.75;0.70;;;19.90;52.10;;;;;;5094278;28;20040;-75
2023/03/17 06:37:15;;;;;;;6.55;0.88;;;19.90;52.10;;;;;;5075902;28;20130;-74
2023/03/17 06:39:41;;;;;;;6.55;0.77;;;20.00;52.20;;;;;;5093362;28;20545;-75
2023/03/17 06:42:06;;;;;;;6.43;0.90;;;20.00;52.20;;;;;;5075646;28;20044;-75
2023/03/17 06:44:32;;;;;;;4.68;0.70;;;20.00;52.20;;;;;;5093729;28;20043;-74
2023/03/17 06:46:58;;;;;;;7.78;0.70;;;20.00;52.30;;;;;;5092831;28;20456;-74
2023/03/17 06:49:23;;;;;;;5.60;0.90;;;20.00;52.30;;;;;;5093875;28;20044;-74
2023/03/17 06:51:49;;;;;;;3.78;0.70;;;20.00;52.40;;;;;;5094004;28;20048;-68
2023/03/17 06:54:15;;;;;;;7.22;1.20;;;20.00;52.40;;;;;;5074494;28;20097;-77
2023/03/17 06:56:41;;;;;;;4.05;0.80;;;20.00;52.60;;;;;;5093268;28;20079;-78
2023/03/17 06:59:07;;;;;;;7.50;0.80;;;20.10;52.90;;;;;;5093709;28;20082;-75
2023/03/17 07:01:32;;;;;;;7.75;1.10;;;20.10;53.00;;;;;;5092593;28;20086;-75
2023/03/17 07:03:58;;;;;;;4.18;0.85;;;20.10;53.20;;;;;;5075418;28;20043;-76
2023/03/17 07:06:24;;;;;;;4.93;0.75;;;20.10;53.30;;;;;;5092550;28;20054;-73
2023/03/17 07:08:49;;;;;;;5.63;1.35;;;20.20;53.40;;;;;;5093907;28;20039;-77
2023/03/17 07:11:15;;;;;;;3.78;0.80;;;20.20;53.50;;;;;;5093348;28;20543;-77
2023/03/17 07:13:41;;;;;;;2.25;0.60;;;20.20;53.60;;;;;;5074283;28;20046;-74
2023/03/17 07:16:07;;;;;;;2.67;0.93;;;20.20;53.60;;;;;;5093553;28;20039;-77
2023/03/17 07:18:33;;;;;;;2.05;0.70;;;20.20;53.60;;;;;;5091542;28;20087;-78
2023/03/17 07:21:01;;;;;;;6.13;0.70;;;20.20;53.60;;;;;;5074465;28;20138;-79
2023/03/17 07:23:28;;;;;;;3.30;0.63;;;20.30;53.70;;;;;;5093193;28;20044;-79
2023/03/17 07:25:54;;;;;;;5.60;0.75;;;20.30;53.60;;;;;;5093643;28;20121;-78
2023/03/17 07:28:20;;;;;;;4.07;0.90;;;20.30;53.70;;;;;;5092533;28;20107;-79
2023/03/17 07:30:48;;;;;;;2.60;0.60;;;20.30;53.70;;;;;;5074437;28;20043;-78
2023/03/17 07:33:14;;;;;;;2.77;0.70;;;20.30;53.60;;;;;;5093990;28;20051;-77
2023/03/17 07:35:43;;;;;;;1.77;0.60;;;20.40;53.70;;;;;;5068100;28;20706;-77
2023/03/17 07:38:09;;;;;;;3.92;0.70;;;20.40;53.60;;;;;;5089884;28;20028;-77
2023/03/17 07:40:34;;;;;;;2.80;0.90;;;20.40;53.50;;;;;;5082290;28;20044;-67
2023/03/17 07:43:00;;;;;;;3.15;0.63;;;20.40;53.60;;;;;;5091364;28;20047;-74
2023/03/17 07:45:26;;;;;;;3.55;0.60;;;20.40;53.70;;;;;;5091959;28;20128;-73
2023/03/17 07:47:52;;;;;;;3.13;0.70;;;20.40;53.60;;;;;;5092452;28;20071;-73
2023/03/17 07:50:19;;;;;;;4.35;0.80;;;20.40;53.40;;;;;;5073574;28;20105;-74
2023/03/17 07:52:44;;;;;;;8.30;0.90;;;20.40;53.20;;;;;;5092573;28;20047;-73
2023/03/17 07:55:11;;;;;;;1.77;0.60;;;20.40;53.10;;;;;;5092932;28;20043;-75
2023/03/17 07:57:37;;;;;;;2.95;0.95;;;20.40;53.10;;;;;;5092150;28;20068;-73
2023/03/17 08:00:07;;;;;;;5.10;0.77;;;20.40;53.10;;;;;;5092165;28;20404;-71
2023/03/17 08:02:33;;;;;;;3.58;0.80;;;20.40;53.00;;;;;;5092137;28;20046;-74
2023/03/17 08:04:59;;;;;;;2.38;0.70;;;20.40;53.00;;;;;;5092060;28;20040;-69
2023/03/17 08:07:24;;;;;;;4.40;0.70;;;20.40;53.00;;;;;;5092300;28;20119;-75
2023/03/17 08:09:51;;;;;;;2.33;0.80;;;20.40;53.10;;;;;;5091653;28;20051;-73
2023/03/17 08:12:17;;;;;;;4.82;1.00;;;20.40;53.00;;;;;;5092633;28;20048;-77
2023/03/17 08:14:42;;;;;;;5.63;1.25;;;20.40;52.90;;;;;;5092185;28;20043;-77
2023/03/17 08:17:09;;;;;;;2.50;0.75;;;20.40;52.80;;;;;;5091450;28;20063;-77
2023/03/17 08:19:34;;;;;;;2.65;0.80;;;20.40;52.90;;;;;;5091980;28;20123;-78
2023/03/17 08:22:00;;;;;;;4.78;0.80;;;20.40;52.90;;;;;;5074569;28;20075;-78
2023/03/17 08:24:26;;;;;;;3.10;0.80;;;20.40;52.90;;;;;;5091039;28;20036;-78
2023/03/17 08:26:52;;;;;;;5.07;0.88;;;20.40;52.80;;;;;;5092516;28;20036;-78
2023/03/17 08:29:17;;;;;;;1.80;0.73;;;20.40;52.80;;;;;;5092636;28;20044;-78
2023/03/17 08:31:43;;;;;;;3.60;0.63;;;20.40;52.90;;;;;;5095355;28;20572;-78
2023/03/17 08:34:09;;;;;;;4.63;0.70;;;20.40;52.90;;;;;;5096409;28;20134;-78
2023/03/17 08:36:34;;;;;;;2.42;1.00;;;20.30;52.80;;;;;;5096260;28;20629;-78
2023/03/17 08:39:00;;;;;;;3.83;0.80;;;20.40;52.80;;;;;;5095572;28;20036;-78
2023/03/17 08:41:26;;;;;;;4.47;1.00;;;20.40;53.60;;;;;;5077879;28;20468;-77
2023/03/17 08:43:53;;;;;;;5.00;0.93;;;20.40;52.90;;;;;;5078158;28;20101;-77
2023/03/17 08:46:26;;;;;;;2.00;0.65;;;20.30;52.80;;;;;;5095507;28;20067;-73
2023/03/17 08:48:53;;;;;;;3.28;0.70;;;20.30;52.70;;;;;;5096366;28;20040;-72
2023/03/17 08:51:19;;;;;;;3.10;1.10;;;20.30;52.70;;;;;;5096056;28;20051;-71
2023/03/17 08:53:45;;;;;;;8.07;1.00;;;20.30;52.40;;;;;;5095543;28;20048;-72
2023/03/17 08:56:11;;;;;;;3.20;0.80;;;20.30;52.40;;;;;;5096305;28;20047;-74
2023/03/17 08:58:38;;;;;;;3.35;0.80;;;20.30;52.40;;;;;;5077388;28;20051;-78
2023/03/17 09:01:04;;;;;;;4.87;0.90;;;20.30;53.10;;;;;;5095485;28;20045;-73
2023/03/17 09:03:30;;;;;;;3.85;0.70;;;20.30;52.50;;;;;;5095460;28;20051;-72
2023/03/17 09:05:56;;;;;;;3.15;0.70;;;20.30;52.50;;;;;;5094189;28;20093;-72
2023/03/17 09:08:22;;;;;;;4.53;0.80;;;20.30;53.30;;;;;;5084101;28;20097;-71
2023/03/17 09:10:48;;;;;;;3.83;0.70;;;20.30;52.80;;;;;;5098749;28;20122;-73
2023/03/17 09:13:15;;;;;;;3.03;1.02;;;20.30;52.90;;;;;;5071396;28;20452;-71
2023/03/17 09:15:43;;;;;;;3.90;0.80;;;20.30;53.00;;;;;;5091418;28;20036;-72
2023/03/17 09:18:09;;;;;;;2.13;0.80;;;20.30;53.00;;;;;;5095962;28;20052;-71
2023/03/17 09:20:37;;;;;;;2.58;0.75;;;20.30;53.10;;;;;;5095725;28;20036;-74
2023/03/17 09:23:09;;;;;;;;;;;20.40;53.30;;;;;;5080368;28;20044;-69
2023/03/17 09:25:36;;;;;;;2.92;0.80;;;20.30;53.30;;;;;;5096763;28;19927;-70
2023/03/17 09:28:01;;;;;;;3.38;1.00;;;20.30;53.30;;;;;;5099425;28;20040;-73
2023/03/17 09:30:27;;;;;;;1.33;0.73;;;20.30;53.40;;;;;;5080015;28;20058;-72
2023/03/17 09:32:52;;;;;;;2.58;0.90;;;20.30;53.40;;;;;;5098217;28;20032;-71
2023/03/17 09:35:19;;;;;;;2.60;0.93;;;20.40;53.60;;;;;;5097651;28;20075;-70
2023/03/17 09:37:46;;;;;;;1.50;0.68;;;20.40;53.70;;;;;;5093890;28;20059;-75
2023/03/17 09:40:13;;;;;;;6.38;1.17;;;20.40;53.70;;;;;;5072226;28;20542;-72
2023/03/17 09:43:17;;;;;;;2.45;0.80;;;20.40;53.70;;;;;;5057006;28;20036;-73
2023/03/17 09:45:46;;;;;;;3.65;0.90;;;20.40;53.50;;;;;;4988873;28;20498;-72
2023/03/17 09:48:38;;;;;;;2.10;1.30;;;20.40;53.00;;;;;;5046541;28;20049;-71
2023/03/17 09:51:07;;;;;;;2.45;1.02;;;20.40;52.90;;;;;;5072916;28;20407;-73
2023/03/17 09:53:54;;;;;;;3.42;0.90;;;20.40;52.90;;;;;;5073837;28;20068;-73
2023/03/17 09:56:20;;;;;;;3.07;1.00;;;20.40;52.70;;;;;;5074798;28;20047;-72
2023/03/17 09:58:56;;;;;;;2.50;0.80;;;20.40;52.80;;;;;;5059642;28;20040;-72
2023/03/17 10:01:22;;;;;;;3.38;1.00;;;20.40;52.80;;;;;;5065923;28;20040;-74
2023/03/17 10:03:49;;;;;;;1.67;0.70;;;20.40;52.70;;;;;;5073540;28;20043;-74
2023/03/17 10:06:33;;;;;;;2.88;0.90;;;20.40;52.70;;;;;;5074706;28;20040;-73
2023/03/17 10:09:15;;;;;;;21.35;4.10;;;20.40;52.80;;;;;;5075018;28;20051;-66
2023/03/17 10:11:45;;;;;;;10.23;3.55;;;20.40;53.50;;;;;;5074568;28;20054;-67
2023/03/17 10:14:33;;;;;;;29.55;7.93;;;20.40;53.70;;;;;;5074844;28;20052;-69
2023/03/17 10:17:19;;;;;;;57.53;10.75;;;20.50;55.10;;;;;;5072684;28;20629;-69
2023/03/17 10:19:47;;;;;;;29.10;6.55;;;20.50;55.40;;;;;;5074979;28;20057;-66
2023/03/17 10:22:20;;;;;;;44.63;8.70;;;20.50;55.10;;;;;;5074558;28;20047;-67
2023/03/17 10:24:49;;;;;;;19.50;5.32;;;20.50;56.00;;;;;;5072325;28;20049;-67
2023/03/17 10:27:15;;;;;;;20.67;5.30;;;20.50;56.20;;;;;;5073002;28;20424;-65
2023/03/17 10:29:41;;;;;;;27.65;4.57;;;20.60;56.40;;;;;;5056113;28;20127;-65
2023/03/17 10:32:09;;;;;;;22.50;4.68;;;20.60;56.40;;;;;;5073464;28;20036;-68
2023/03/17 10:34:35;;;;;;;16.20;4.50;;;20.60;56.50;;;;;;5057484;28;20511;-66
2023/03/17 10:37:11;;;;;;;23.83;8.20;;;20.60;56.50;;;;;;5079265;28;20047;-62
2023/03/17 10:39:55;;;;;;;60.38;14.93;;;20.60;57.30;;;;;;5087622;28;20102;-63
2023/03/17 10:42:25;;;;;;;24.95;7.10;;;20.60;59.10;;;;;;5076192;28;20083;-64
2023/03/17 10:44:57;;;;;;;18.92;4.45;;;20.60;58.40;;;;;;5092394;28;20051;-64
2023/03/17 10:47:23;;;;;;;19.67;4.82;;;20.60;57.80;;;;;;5075217;28;20447;-64
2023/03/17 10:49:50;;;;;;;16.90;3.92;;;20.70;57.50;;;;;;5093751;28;20127;-64
2023/03/17 10:52:27;;;;;;;17.03;4.40;;;20.70;57.30;;;;;;5092119;28;20429;-65
2023/03/17 10:54:53;;;;;;;19.90;3.95;;;20.70;57.00;;;;;;5076052;28;20293;-65
2023/03/17 10:57:19;;;;;;;15.65;4.13;;;20.70;56.90;;;;;;5093972;28;20032;-65
2023/03/17 10:59:52;;;;;;;13.48;3.95;;;20.70;56.80;;;;;;5074874;28;20047;-63
2023/03/17 11:02:29;;;;;;;14.63;3.58;;;20.70;56.70;;;;;;5093524;28;20044;-65
2023/03/17 11:04:59;;;;;;;12.50;3.80;;;20.70;56.60;;;;;;5093467;28;20097;-65
2023/03/17 11:07:35;;;;;;;13.60;3.05;;;20.70;56.60;;;;;;5092857;28;20502;-63
2023/03/17 11:10:01;;;;;;;12.43;3.10;;;20.70;56.50;;;;;;5093203;28;20387;-65
2023/03/17 11:12:39;;;;;;;10.30;2.70;;;20.70;56.50;;;;;;5092799;28;20093;-64
2023/03/17 11:15:08;;;;;;;9.10;2.65;;;20.70;56.40;;;;;;5093344;28;20051;-65
2023/03/17 11:18:00;;;;;;;13.20;3.25;;;20.70;56.40;;;;;;5074797;28;20048;-64
2023/03/17 11:20:54;;;;;;;8.90;2.95;;;20.70;56.20;;;;;;5077337;28;20040;-64
2023/03/17 11:23:34;;;;;;;9.05;2.63;;;20.70;56.10;;;;;;5074775;28;20044;-64
2023/03/17 11:26:10;;;;;;;12.73;3.08;;;20.70;56.00;;;;;;5075475;28;20044;-64
2023/03/17 11:28:39;;;;;;;8.25;2.83;;;20.70;55.90;;;;;;5058617;28;20028;-64
2023/03/17 11:31:14;;;;;;;8.07;2.20;;;20.70;55.90;;;;;;5075418;28;20055;-65
2023/03/17 11:33:54;;;;;;;9.13;2.95;;;20.70;55.80;;;;;;5058251;28;20028;-65
2023/03/17 11:37:09;;;;;;;10.02;2.63;;;20.70;55.80;;;;;;5074690;28;20098;-64
2023/03/17 11:39:42;;;;;;;9.63;3.10;;;20.70;55.70;;;;;;5032379;28;20090;-65
2023/03/17 11:42:22;;;;;;;7.43;2.00;;;20.70;55.70;;;;;;5092257;28;20436;-64
2023/03/17 11:44:48;;;;;;;6.43;2.33;;;20.70;55.70;;;;;;5076328;28;20395;-64
2023/03/17 11:47:41;;;;;;;7.93;2.38;;;20.70;55.70;;;;;;5093004;28;20476;-65
2023/03/17 11:50:36;;;;;;;5.38;1.85;;;20.70;55.60;;;;;;5074759;28;20129;-65
2023/03/17 11:53:07;;;;;;;8.85;2.33;;;20.80;55.50;;;;;;5003353;28;20054;-65
2023/03/17 11:55:36;;;;;;;9.18;2.10;;;20.80;55.60;;;;;;5091760;28;20040;-65
2023/03/17 11:58:04;;;;;;;9.73;2.50;;;20.70;55.50;;;;;;5075051;28;20040;-65
2023/03/17 12:00:31;;;;;;;6.22;2.22;;;20.70;55.40;;;;;;5054181;28;20377;-65
2023/03/17 12:03:03;;;;;;;7.18;2.08;;;20.70;55.40;;;;;;5071621;28;20084;-65
2023/03/17 12:05:28;;;;;;;5.30;2.10;;;20.80;55.40;;;;;;5089085;28;20047;-64
2023/03/17 12:07:56;;;;;;;6.63;1.88;;;20.70;55.30;;;;;;5092809;28;20040;-65
2023/03/17 12:10:22;;;;;;;5.32;2.28;;;20.80;55.40;;;;;;5073933;28;20072;-62
2023/03/17 12:12:56;;;;;;;5.50;1.92;;;20.80;55.30;;;;;;5074418;28;20407;-64
2023/03/17 12:15:32;;;;;;;8.05;2.05;;;20.70;55.10;;;;;;5054744;28;20040;-64
2023/03/17 12:18:30;;;;;;;6.95;2.20;;;20.70;55.20;;;;;;5054374;28;20048;-66
2023/03/17 12:21:12;;;;;;;9.00;1.90;;;20.70;55.00;;;;;;5077055;28;20136;-64
2023/03/17 12:23:48;;;;;;;6.05;1.90;;;20.70;55.00;;;;;;5073557;28;20044;-62
2023/03/17 12:26:19;;;;;;;5.97;1.73;;;20.70;54.90;;;;;;5092800;28;20151;-60
2023/03/17 12:28:57;;;;;;;5.72;1.73;;;20.70;54.90;;;;;;5058135;28;20052;-62
2023/03/17 12:31:25;;;;;;;7.50;2.10;;;20.70;54.90;;;;;;5058475;28;20040;-63
2023/03/17 12:34:14;;;;;;;10.38;2.13;;;20.70;54.90;;;;;;5074160;28;20044;-62
2023/03/17 12:36:40;;;;;;;8.90;1.98;;;20.70;55.00;;;;;;5075003;28;20051;-63
2023/03/17 12:39:08;;;;;;;61.90;16.02;;;20.70;55.10;;;;;;5091782;28;20040;-65
2023/03/17 12:41:40;;;;;;;14.52;4.30;;;20.70;56.70;;;;;;5057727;28;20040;-64
2023/03/17 12:44:15;;;;;;;11.00;3.88;;;20.70;56.90;;;;;;5091476;28;20040;-64
2023/03/17 12:46:48;;;;;;;11.13;3.63;;;20.70;56.80;;;;;;5058533;28;20040;-63
2023/03/17 12:49:33;;;;;;;13.07;3.30;;;20.70;56.80;;;;;;5092437;28;20040;-63
2023/03/17 12:52:01;;;;;;;8.73;2.97;;;20.70;57.10;;;;;;5089779;28;20054;-63